Time;durP1;ratioP1;P1;durP2;ratioP2;P2;SDS_P1;SDS_P2;PMS_P1;PMS_P2;Temp;Humidity;BMP_temperature;BMP_pressure;BME280_temperature;BME280_humidity;BME280_pressure;Samples;Min_cycle;Max_cycle;Signal;HPM_P1;HPM_P2
2023/10/04 00:00:15;;;;;;;;;;;13.70;99.90;;;;;;5115142;28;19978;-41
2023/10/04 00:02:43;;;;;;;;;;;13.80;99.90;;;;;;5115435;28;20336;-41
2023/10/04 00:05:08;;;;;;;;;;;13.70;99.90;;;;;;5115102;28;19927;-41
2023/10/04 00:07:34;;;;;;;;;;;13.70;99.90;;;;;;5114886;28;19930;-41
2023/10/04 00:10:04;;;;;;;;;;;13.70;99.90;;;;;;5114822;28;19924;-41
2023/10/04 00:12:30;;;;;;;;;;;13.70;99.90;;;;;;5114963;28;20010;-41
2023/10/04 00:14:56;;;;;;;;;;;13.70;99.90;;;;;;5115416;28;20020;-41
2023/10/04 00:17:22;;;;;;;;;;;13.70;99.90;;;;;;5115169;28;19924;-41
2023/10/04 00:19:47;;;;;;;;;;;13.70;99.90;;;;;;5114962;28;20438;-41
2023/10/04 00:22:13;;;;;;;;;;;13.60;99.90;;;;;;5114702;28;20324;-41
2023/10/04 00:24:39;;;;;;;;;;;13.70;99.90;;;;;;5114125;28;19924;-41
2023/10/04 00:27:05;;;;;;;;;;;13.60;99.90;;;;;;5113596;28;20367;-41
2023/10/04 00:29:30;;;;;;;;;;;13.60;99.90;;;;;;5114836;28;19969;-41
2023/10/04 00:31:56;;;;;;;;;;;13.60;99.90;;;;;;5114851;28;19982;-41
2023/10/04 00:34:22;;;;;;;;;;;13.60;99.90;;;;;;5114664;28;19978;-41
2023/10/04 00:36:48;;;;;;;;;;;13.60;99.90;;;;;;5114443;28;19979;-41
2023/10/04 00:39:14;;;;;;;;;;;13.60;99.90;;;;;;5114457;28;19924;-41
2023/10/04 00:41:40;;;;;;;;;;;13.60;99.90;;;;;;5113420;28;19947;-41
2023/10/04 00:44:07;;;;;;;;;;;13.60;99.90;;;;;;5114580;28;19924;-41
2023/10/04 00:46:35;;;;;;;;;;;13.60;99.90;;;;;;5113663;28;19930;-41
2023/10/04 00:49:02;;;;;;;;;;;13.60;99.90;;;;;;5114503;28;19927;-40
2023/10/04 00:51:35;;;;;;;;;;;13.60;99.90;;;;;;5114481;28;19935;-41
2023/10/04 00:54:07;;;;;;;;;;;13.50;99.90;;;;;;5113362;28;19930;-41
2023/10/04 00:56:36;;;;;;;;;;;13.50;99.90;;;;;;5114495;28;20418;-41
2023/10/04 00:59:04;;;;;;;;;;;13.50;99.90;;;;;;5113245;28;19928;-41
2023/10/04 01:01:31;;;;;;;;;;;13.50;99.90;;;;;;5114352;28;19977;-41
2023/10/04 01:03:57;;;;;;;;;;;13.50;99.90;;;;;;5113445;28;19930;-41
2023/10/04 01:06:22;;;;;;;;;;;13.50;99.90;;;;;;5113140;28;19971;-41
2023/10/04 01:08:48;;;;;;;;;;;13.50;99.90;;;;;;5114401;28;19966;-41
2023/10/04 01:11:14;;;;;;;;;;;13.50;99.90;;;;;;5114736;28;19928;-41
2023/10/04 01:13:40;;;;;;;;;;;13.50;99.90;;;;;;5114391;28;19930;-41
2023/10/04 01:16:09;;;;;;;;;;;13.50;99.90;;;;;;5114156;28;19986;-41
2023/10/04 01:18:35;;;;;;;;;;;13.50;99.90;;;;;;5113378;28;19924;-41
2023/10/04 01:21:00;;;;;;;;;;;13.50;99.90;;;;;;5114192;28;19963;-41
2023/10/04 01:23:28;;;;;;;;;;;13.50;99.90;;;;;;5114041;28;19990;-41
2023/10/04 01:25:53;;;;;;;;;;;13.50;99.90;;;;;;5114198;28;19923;-41
2023/10/04 01:28:28;;;;;;;;;;;13.50;99.90;;;;;;5113998;28;19931;-41
2023/10/04 01:30:54;;;;;;;;;;;13.50;99.90;;;;;;5113238;28;20375;-41
2023/10/04 01:33:20;;;;;;;;;;;13.50;99.90;;;;;;5114105;28;20022;-41
2023/10/04 01:35:49;;;;;;;;;;;13.50;99.90;;;;;;5115206;28;19981;-41
2023/10/04 01:38:14;;;;;;;;;;;13.40;99.90;;;;;;5118447;27;19928;-41
2023/10/04 01:40:43;;;;;;;;;;;13.40;99.90;;;;;;5117889;28;20406;-41
2023/10/04 01:43:27;;;;;;;;;;;13.40;99.90;;;;;;5117716;28;19928;-41
2023/10/04 01:45:58;;;;;;;;;;;13.40;99.90;;;;;;5117585;28;19924;-41
2023/10/04 01:48:24;;;;;;;;;;;13.40;99.90;;;;;;5117877;28;20018;-41
2023/10/04 01:50:53;;;;;;;;;;;13.40;99.90;;;;;;5117702;28;19924;-41
2023/10/04 01:53:24;;;;;;;;;;;13.40;99.90;;;;;;5117762;28;19942;-41
2023/10/04 01:55:50;;;;;;;;;;;13.40;99.90;;;;;;5116362;28;19927;-41
2023/10/04 01:58:18;;;;;;;;;;;13.30;99.90;;;;;;5117404;28;19983;-41
2023/10/04 02:00:44;;;;;;;;;;;13.30;99.90;;;;;;5117042;28;19924;-41
2023/10/04 02:03:10;;;;;;;;;;;13.30;99.90;;;;;;5118000;27;19947;-41
2023/10/04 02:05:40;;;;;;;;;;;13.30;99.90;;;;;;5117566;28;19986;-41
2023/10/04 02:08:07;;;;;;;;;;;13.30;99.90;;;;;;5116773;28;19924;-41
2023/10/04 02:10:33;;;;;;;;;;;13.30;99.90;;;;;;5116309;28;19924;-41
2023/10/04 02:12:58;;;;;;;;;;;13.30;99.90;;;;;;5117129;28;19927;-41
2023/10/04 02:15:24;;;;;;;;;;;13.30;99.90;;;;;;5117279;28;20373;-41
2023/10/04 02:17:50;;;;;;;;;;;13.30;99.90;;;;;;5117784;27;19924;-41
2023/10/04 02:20:23;;;;;;;;;;;13.30;99.90;;;;;;5117484;28;19946;-41
2023/10/04 02:22:54;;;;;;;;;;;13.30;99.90;;;;;;5117061;28;19981;-41
2023/10/04 02:25:20;;;;;;;;;;;13.30;99.90;;;;;;5117080;28;19923;-41
2023/10/04 02:27:48;;;;;;;;;;;13.30;99.90;;;;;;5116943;28;19950;-41
2023/10/04 02:30:15;;;;;;;;;;;13.30;99.90;;;;;;5117277;28;19928;-41
2023/10/04 02:32:43;;;;;;;;;;;13.30;99.90;;;;;;5116864;28;19924;-41
2023/10/04 02:35:28;;;;;;;;;;;13.30;99.90;;;;;;5116751;28;19928;-41
2023/10/04 02:38:00;;;;;;;;;;;13.30;99.90;;;;;;5116893;28;20317;-41
2023/10/04 02:40:32;;;;;;;;;;;13.30;99.90;;;;;;5116805;28;20275;-41
2023/10/04 02:42:58;;;;;;;;;;;13.30;99.90;;;;;;5116850;28;19946;-41
2023/10/04 02:45:29;;;;;;;;;;;13.30;99.90;;;;;;5116216;28;20383;-41
2023/10/04 02:47:54;;;;;;;;;;;13.30;99.90;;;;;;5116524;28;19931;-41
2023/10/04 02:50:21;;;;;;;;;;;13.30;99.90;;;;;;5116547;28;19932;-41
2023/10/04 02:52:47;;;;;;;;;;;13.30;99.90;;;;;;5116394;28;19976;-41
2023/10/04 02:55:16;;;;;;;;;;;13.20;99.90;;;;;;5115680;28;19923;-41
2023/10/04 02:57:42;;;;;;;;;;;13.30;99.90;;;;;;5116394;28;19923;-41
2023/10/04 03:00:12;;;;;;;;;;;13.20;99.90;;;;;;5116069;28;19924;-41
2023/10/04 03:02:38;;;;;;;;;;;13.20;99.90;;;;;;5116224;28;20387;-41
2023/10/04 03:05:06;;;;;;;;;;;13.20;99.90;;;;;;5116253;28;19961;-41
2023/10/04 03:07:32;;;;;;;;;;;13.30;99.90;;;;;;5116120;28;19924;-41
2023/10/04 03:09:58;;;;;;;;;;;13.30;99.90;;;;;;5116193;28;20363;-41
2023/10/04 03:12:24;;;;;;;;;;;13.20;99.90;;;;;;5116279;28;19923;-41
2023/10/04 03:14:50;;;;;;;;;;;13.20;99.90;;;;;;5116036;28;19969;-41
2023/10/04 03:17:16;;;;;;;;;;;13.30;99.90;;;;;;5114727;28;19930;-41
2023/10/04 03:19:42;;;;;;;;;;;13.30;99.90;;;;;;5114964;28;20014;-41
2023/10/04 03:22:10;;;;;;;;;;;13.30;99.90;;;;;;5116377;28;20302;-41
2023/10/04 03:24:36;;;;;;;;;;;13.30;99.90;;;;;;5115848;28;20371;-41
2023/10/04 03:27:05;;;;;;;;;;;13.20;99.90;;;;;;5115695;28;20366;-41
2023/10/04 03:29:30;;;;;;;;;;;13.30;99.90;;;;;;5114794;28;19930;-41
2023/10/04 03:31:56;;;;;;;;;;;13.30;99.90;;;;;;5115763;28;19923;-41
2023/10/04 03:34:25;;;;;;;;;;;13.30;99.90;;;;;;5115717;28;19927;-41
2023/10/04 03:36:51;;;;;;;;;;;13.30;99.90;;;;;;5115525;28;20374;-41
2023/10/04 03:39:16;;;;;;;;;;;13.30;99.90;;;;;;5115984;28;20275;-41
2023/10/04 03:41:42;;;;;;;;;;;13.30;99.90;;;;;;5115671;28;19930;-41
2023/10/04 03:44:09;;;;;;;;;;;13.30;99.90;;;;;;5115422;28;20371;-41
2023/10/04 03:46:34;;;;;;;;;;;13.30;99.90;;;;;;5115631;28;19923;-41
2023/10/04 03:49:02;;;;;;;;;;;13.30;99.90;;;;;;5115309;28;20370;-41
2023/10/04 03:51:28;;;;;;;;;;;13.30;99.90;;;;;;5115153;28;19975;-41
2023/10/04 03:53:54;;;;;;;;;;;13.30;99.90;;;;;;5114377;28;20339;-41
2023/10/04 03:56:22;;;;;;;;;;;13.30;99.90;;;;;;5115167;28;20398;-41
2023/10/04 03:58:48;;;;;;;;;;;13.30;99.90;;;;;;5114747;27;19931;-41
2023/10/04 04:01:14;;;;;;;;;;;13.30;99.90;;;;;;5114931;28;20018;-41
2023/10/04 04:03:40;;;;;;;;;;;13.20;99.90;;;;;;5114123;28;19970;-41
2023/10/04 04:06:06;;;;;;;;;;;13.30;99.90;;;;;;5115593;28;19923;-41
2023/10/04 04:08:32;;;;;;;;;;;13.20;99.90;;;;;;5115065;28;20005;-41
2023/10/04 04:10:58;;;;;;;;;;;13.20;99.90;;;;;;5115134;28;19980;-41
2023/10/04 04:13:24;;;;;;;;;;;13.20;99.90;;;;;;5115008;28;19931;-41
2023/10/04 04:15:51;;;;;;;;;;;13.20;99.90;;;;;;5114861;28;19931;-41
2023/10/04 04:18:20;;;;;;;;;;;13.20;99.90;;;;;;5114772;28;19923;-41
2023/10/04 04:20:49;;;;;;;;;;;13.20;99.90;;;;;;5114914;28;19931;-41
2023/10/04 04:23:15;;;;;;;;;;;13.20;99.90;;;;;;5115306;28;19928;-41
2023/10/04 04:25:41;;;;;;;;;;;13.20;99.90;;;;;;5114671;28;19924;-41
2023/10/04 04:28:07;;;;;;;;;;;13.20;99.90;;;;;;5114771;28;19974;-41
2023/10/04 04:30:35;;;;;;;;;;;13.10;99.90;;;;;;5114909;28;19975;-41
2023/10/04 04:33:07;;;;;;;;;;;13.10;99.90;;;;;;5114478;28;19923;-41
2023/10/04 04:38:17;;;;;;;;;;;13.10;99.90;;;;;;5114614;28;19927;-41
2023/10/04 04:40:46;;;;;;;;;;;13.10;99.90;;;;;;5114582;28;19924;-42
2023/10/04 04:43:34;;;;;;;;;;;13.10;99.90;;;;;;5114504;28;20321;-42
2023/10/04 04:45:59;;;;;;;;;;;13.10;99.90;;;;;;5113868;28;19924;-41
2023/10/04 04:48:25;;;;;;;;;;;13.10;99.90;;;;;;5114717;28;20287;-41
2023/10/04 04:50:52;;;;;;;;;;;13.10;99.90;;;;;;5114483;28;19923;-41
2023/10/04 04:53:20;;;;;;;;;;;13.10;99.90;;;;;;5114364;28;19989;-41
2023/10/04 04:55:46;;;;;;;;;;;13.10;99.90;;;;;;5113191;28;19924;-41
2023/10/04 04:58:14;;;;;;;;;;;13.10;99.90;;;;;;5114287;28;19948;-41
2023/10/04 05:00:43;;;;;;;;;;;13.10;99.90;;;;;;5114061;28;19970;-41
2023/10/04 05:03:10;;;;;;;;;;;13.10;99.90;;;;;;5114637;28;19927;-41
2023/10/04 05:05:35;;;;;;;;;;;13.10;99.90;;;;;;5114285;28;19924;-42
2023/10/04 05:08:01;;;;;;;;;;;13.10;99.90;;;;;;5114482;28;20378;-41
2023/10/04 05:10:34;;;;;;;;;;;13.10;99.90;;;;;;5115032;28;20306;-41
2023/10/04 05:13:03;;;;;;;;;;;13.10;99.90;;;;;;5118545;28;19965;-41
2023/10/04 05:15:32;;;;;;;;;;;13.10;99.90;;;;;;5118262;28;20036;-41
2023/10/04 05:18:00;;;;;;;;;;;13.10;99.90;;;;;;5116856;28;20389;-42
2023/10/04 05:20:26;;;;;;;;;;;13.10;99.90;;;;;;5118249;28;19931;-42
2023/10/04 05:22:53;;;;;;;;;;;13.10;99.90;;;;;;5118078;28;19979;-41
2023/10/04 05:25:20;;;;;;;;;;;13.10;99.90;;;;;;5117318;28;19930;-41
2023/10/04 05:27:48;;;;;;;;;;;13.10;99.90;;;;;;5118321;28;19924;-41
2023/10/04 05:30:16;;;;;;;;;;;13.10;99.90;;;;;;5134297;27;19924;-41
2023/10/04 05:32:42;;;;;;;;;;;13.10;99.90;;;;;;5118072;28;19930;-41
2023/10/04 05:35:12;;;;;;;;;;;13.10;99.90;;;;;;5117947;28;19971;-41
2023/10/04 05:37:41;;;;;;;;;;;13.10;99.90;;;;;;5117950;27;19928;-42
2023/10/04 05:40:16;;;;;;;;;;;13.10;99.90;;;;;;5118037;28;20313;-41
2023/10/04 05:42:45;;;;;;;;;;;13.10;99.90;;;;;;5118225;28;19924;-42
2023/10/04 05:45:12;;;;;;;;;;;13.10;99.90;;;;;;5117608;28;20409;-41
2023/10/04 05:47:38;;;;;;;;;;;13.00;99.90;;;;;;5117741;28;19930;-41
2023/10/04 05:50:08;;;;;;;;;;;13.00;99.90;;;;;;5116387;28;19931;-42
2023/10/04 05:52:33;;;;;;;;;;;13.10;99.90;;;;;;5117743;28;20495;-42
2023/10/04 05:55:00;;;;;;;;;;;13.10;99.90;;;;;;5117926;28;19965;-41
2023/10/04 05:57:26;;;;;;;;;;;13.10;99.90;;;;;;5117524;28;19931;-41
2023/10/04 05:59:52;;;;;;;;;;;13.10;99.90;;;;;;5117459;28;19923;-41
2023/10/04 06:02:18;;;;;;;;;;;13.10;99.90;;;;;;5117443;28;19931;-41
2023/10/04 06:04:44;;;;;;;;;;;13.10;99.90;;;;;;5117221;28;19923;-41
2023/10/04 06:07:09;;;;;;;;;;;13.10;99.90;;;;;;5117370;28;20385;-40
2023/10/04 06:09:42;;;;;;;;;;;13.10;99.90;;;;;;5117325;28;19924;-40
2023/10/04 06:12:08;;;;;;;;;;;13.10;99.90;;;;;;5117619;28;19978;-41
2023/10/04 06:14:35;;;;;;;;;;;13.10;99.90;;;;;;5117112;27;19923;-40
2023/10/04 06:17:00;;;;;;;;;;;13.10;99.90;;;;;;5116952;28;19924;-41
2023/10/04 06:19:28;;;;;;;;;;;13.20;99.90;;;;;;5117020;28;19977;-41
2023/10/04 06:21:53;;;;;;;;;;;13.10;99.90;;;;;;5116594;28;20291;-40
2023/10/04 06:24:19;;;;;;;;;;;13.20;99.90;;;;;;5117095;27;19927;-40
2023/10/04 06:26:44;;;;;;;;;;;13.10;99.90;;;;;;5115805;28;20392;-41
2023/10/04 06:29:10;;;;;;;;;;;13.20;99.90;;;;;;5117052;28;19924;-41
2023/10/04 06:31:35;;;;;;;;;;;13.20;99.90;;;;;;5116951;28;20022;-40
2023/10/04 06:34:02;;;;;;;;;;;13.20;99.90;;;;;;5116720;28;20389;-41
2023/10/04 06:36:29;;;;;;;;;;;13.20;99.90;;;;;;5116037;28;19974;-41
2023/10/04 06:38:55;;;;;;;;;;;13.20;99.90;;;;;;5116827;28;19924;-40
2023/10/04 06:41:25;;;;;;;;;;;13.20;99.90;;;;;;5116894;28;20298;-41
2023/10/04 06:43:50;;;;;;;;;;;13.20;99.90;;;;;;5116488;28;19928;-41
2023/10/04 06:46:16;;;;;;;;;;;13.20;99.90;;;;;;5116606;28;20410;-44
2023/10/04 06:48:42;;;;;;;;;;;13.20;99.90;;;;;;5115414;28;19931;-41
2023/10/04 06:51:08;;;;;;;;;;;13.30;99.90;;;;;;5116857;28;19923;-41
2023/10/04 06:53:33;;;;;;;;;;;13.30;99.90;;;;;;5116489;28;19963;-41
2023/10/04 06:55:59;;;;;;;;;;;13.30;99.90;;;;;;5116304;28;19923;-40
2023/10/04 06:58:25;;;;;;;;;;;13.40;99.90;;;;;;5116686;27;19931;-41
2023/10/04 07:00:50;;;;;;;;;;;13.30;99.90;;;;;;5116388;28;19923;-40
2023/10/04 07:03:16;;;;;;;;;;;13.40;99.90;;;;;;5116194;28;19924;-41
2023/10/04 07:05:42;;;;;;;;;;;13.40;99.90;;;;;;5116284;28;20042;-42
2023/10/04 07:08:12;;;;;;;;;;;13.40;99.90;;;;;;5116411;28;20354;-41
2023/10/04 07:10:38;;;;;;;;;;;13.40;99.90;;;;;;5116124;28;20015;-41
2023/10/04 07:13:05;;;;;;;;;;;13.50;99.90;;;;;;5116162;27;19963;-41
2023/10/04 07:15:35;;;;;;;;;;;13.50;99.90;;;;;;5116056;28;19949;-41
2023/10/04 07:18:02;;;;;;;;;;;13.50;99.90;;;;;;5116234;28;19931;-41
2023/10/04 07:20:27;;;;;;;;;;;13.60;99.90;;;;;;5116438;28;20286;-41
2023/10/04 07:23:03;;;;;;;;;;;13.60;99.90;;;;;;5116001;28;19923;-41
2023/10/04 07:25:34;;;;;;;;;;;13.60;99.90;;;;;;5115899;27;19928;-41
2023/10/04 07:28:04;;;;;;;;;;;13.70;99.90;;;;;;5115824;27;19931;-41
2023/10/04 07:30:31;;;;;;;;;;;13.70;99.90;;;;;;5114738;28;19930;-41
2023/10/04 07:33:00;;;;;;;;;;;13.70;99.90;;;;;;5115390;28;19924;-41
2023/10/04 07:35:26;;;;;;;;;;;13.80;99.90;;;;;;5115643;28;19930;-41
2023/10/04 07:37:55;;;;;;;;;;;13.80;99.90;;;;;;5115627;28;20401;-41
2023/10/04 07:40:22;;;;;;;;;;;13.90;99.90;;;;;;5115563;28;19963;-41
2023/10/04 07:42:54;;;;;;;;;;;13.90;99.90;;;;;;5115458;28;19970;-41
2023/10/04 07:45:20;;;;;;;;;;;14.00;99.90;;;;;;5114777;28;19930;-42
2023/10/04 07:47:46;;;;;;;;;;;14.00;99.90;;;;;;5115437;28;19923;-40
2023/10/04 07:50:13;;;;;;;;;;;14.00;99.90;;;;;;5115426;28;20015;-41
2023/10/04 07:52:39;;;;;;;;;;;14.10;99.90;;;;;;5114395;28;19953;-41
2023/10/04 07:55:10;;;;;;;;;;;14.10;99.90;;;;;;5115333;28;20283;-41
2023/10/04 07:57:41;;;;;;;;;;;14.20;99.90;;;;;;5115405;28;19930;-41
2023/10/04 08:00:14;;;;;;;;;;;14.20;99.90;;;;;;5115167;28;20328;-41
2023/10/04 08:02:50;;;;;;;;;;;14.20;99.90;;;;;;5115195;28;19934;-41
2023/10/04 08:05:20;;;;;;;;;;;14.20;99.90;;;;;;5115309;28;19923;-41
2023/10/04 08:07:49;;;;;;;;;;;14.40;99.90;;;;;;5114909;28;19931;-41
2023/10/04 08:10:15;;;;;;;;;;;14.40;99.90;;;;;;5114969;28;20466;-41
2023/10/04 08:12:42;;;;;;;;;;;14.50;99.90;;;;;;5114128;28;19924;-41
2023/10/04 08:15:08;;;;;;;;;;;14.50;99.90;;;;;;5115093;28;19923;-41
2023/10/04 08:17:34;;;;;;;;;;;14.50;99.90;;;;;;5115118;28;19924;-41
2023/10/04 08:19:59;;;;;;;;;;;14.60;99.90;;;;;;5114690;28;19976;-41
2023/10/04 08:22:25;;;;;;;;;;;14.70;99.90;;;;;;5114750;28;19970;-41
2023/10/04 08:24:53;;;;;;;;;;;14.70;99.90;;;;;;5115121;28;19924;-41
2023/10/04 08:27:18;;;;;;;;;;;14.80;99.90;;;;;;5114909;28;19927;-41
2023/10/04 08:29:44;;;;;;;;;;;14.80;99.90;;;;;;5114740;28;19931;-41
2023/10/04 08:32:10;;;;;;;;;;;14.80;99.90;;;;;;5114703;28;19924;-41
2023/10/04 08:34:37;;;;;;;;;;;14.90;99.90;;;;;;5114651;28;19977;-41
2023/10/04 08:37:02;;;;;;;;;;;14.90;99.90;;;;;;5114391;28;19977;-41
2023/10/04 08:39:28;;;;;;;;;;;14.90;99.90;;;;;;5114691;28;20062;-41
2023/10/04 08:41:54;;;;;;;;;;;15.00;99.90;;;;;;5114823;28;19930;-41
2023/10/04 08:44:20;;;;;;;;;;;15.00;99.90;;;;;;5114477;28;19924;-41
2023/10/04 08:46:46;;;;;;;;;;;15.00;99.90;;;;;;5114806;28;20286;-40
2023/10/04 08:49:14;;;;;;;;;;;15.00;99.90;;;;;;5114570;28;20011;-41
2023/10/04 08:51:51;;;;;;;;;;;15.10;99.90;;;;;;5114376;28;19924;-41
2023/10/04 08:54:21;;;;;;;;;;;15.10;99.90;;;;;;5114549;28;20040;-41
2023/10/04 08:56:48;;;;;;;;;;;15.20;99.90;;;;;;5114441;28;19931;-41
2023/10/04 08:59:14;;;;;;;;;;;15.20;99.90;;;;;;5114479;28;19928;-41
2023/10/04 09:01:41;;;;;;;;;;;15.20;99.90;;;;;;5114032;28;19930;-41
2023/10/04 09:04:07;;;;;;;;;;;15.30;99.90;;;;;;5114411;28;19924;-41
2023/10/04 09:06:32;;;;;;;;;;;15.30;99.90;;;;;;5114185;28;20027;-41
2023/10/04 09:08:58;;;;;;;;;;;15.30;99.90;;;;;;5114870;28;19959;-40
2023/10/04 09:11:25;;;;;;;;;;;15.40;99.90;;;;;;5114334;28;19923;-41
2023/10/04 09:13:52;;;;;;;;;;;15.40;99.90;;;;;;5114269;28;19924;-41
2023/10/04 09:16:22;;;;;;;;;;;15.50;99.90;;;;;;5114159;28;19979;-41
2023/10/04 09:18:48;;;;;;;;;;;15.50;99.90;;;;;;5114183;28;19923;-41
2023/10/04 09:21:14;;;;;;;;;;;15.50;99.90;;;;;;5114267;28;19927;-41
2023/10/04 09:23:40;;;;;;;;;;;15.60;99.90;;;;;;5114224;28;20339;-41
2023/10/04 09:26:14;;;;;;;;;;;15.60;99.90;;;;;;5114271;28;19930;-41
2023/10/04 09:28:40;;;;;;;;;;;15.60;99.90;;;;;;5130446;28;20010;-41
2023/10/04 09:31:10;;;;;;;;;;;15.60;99.90;;;;;;5114133;28;20007;-41
2023/10/04 09:33:36;;;;;;;;;;;15.70;99.90;;;;;;5114899;28;20274;-41
2023/10/04 09:36:01;;;;;;;;;;;15.70;99.90;;;;;;5114260;28;19930;-41
2023/10/04 09:38:29;;;;;;;;;;;15.80;99.90;;;;;;5114133;28;20286;-41
2023/10/04 09:40:55;;;;;;;;;;;15.80;99.90;;;;;;5114161;28;19924;-42
2023/10/04 09:43:30;;;;;;;;;;;15.90;99.90;;;;;;5113302;28;19928;-41
2023/10/04 09:45:59;;;;;;;;;;;15.90;99.90;;;;;;5112924;28;19931;-41
2023/10/04 09:48:30;;;;;;;;;;;15.90;99.90;;;;;;5113840;28;20472;-41
2023/10/04 09:51:00;;;;;;;;;;;16.00;99.90;;;;;;5114048;28;19924;-41
2023/10/04 09:53:25;;;;;;;;;;;16.00;99.90;;;;;;5096371;28;20410;-43
2023/10/04 09:55:52;;;;;;;;;;;16.10;99.90;;;;;;5114292;28;19975;-40
2023/10/04 09:58:22;;;;;;;;;;;16.10;99.90;;;;;;5116411;28;19989;-41
2023/10/04 10:00:49;;;;;;;;;;;16.00;99.90;;;;;;5117595;28;19931;-41
2023/10/04 10:03:16;;;;;;;;;;;16.00;99.90;;;;;;5117918;28;19930;-41
2023/10/04 10:05:43;;;;;;;;;;;16.10;99.90;;;;;;5117268;28;19923;-41
2023/10/04 10:08:11;;;;;;;;;;;16.10;99.90;;;;;;5117416;28;19931;-41
2023/10/04 10:10:41;;;;;;;;;;;16.20;99.90;;;;;;5117419;28;19932;-41
2023/10/04 10:13:08;;;;;;;;;;;16.20;99.90;;;;;;5117039;28;19981;-41
2023/10/04 10:15:34;;;;;;;;;;;16.20;99.90;;;;;;5117173;28;19923;-41
2023/10/04 10:18:00;;;;;;;;;;;16.20;99.90;;;;;;5115801;28;19924;-41
2023/10/04 10:20:26;;;;;;;;;;;16.20;99.90;;;;;;5117095;28;19949;-41
2023/10/04 10:22:57;;;;;;;;;;;16.30;99.90;;;;;;5117090;28;19924;-41
2023/10/04 10:25:25;;;;;;;;;;;16.40;99.90;;;;;;5116716;28;20374;-41
2023/10/04 10:27:55;;;;;;;;;;;16.40;99.90;;;;;;5117073;27;19984;-41
2023/10/04 10:30:21;;;;;;;;;;;16.50;99.90;;;;;;5117022;28;19923;-41
2023/10/04 10:32:53;;;;;;;;;;;16.50;99.90;;;;;;5116919;28;19930;-41
2023/10/04 10:35:37;;;;;;;;;;;16.50;99.90;;;;;;5116854;28;20375;-41
2023/10/04 10:38:21;;;;;;;;;;;16.50;99.90;;;;;;5116601;28;19930;-41
2023/10/04 10:40:46;;;;;;;;;;;16.50;99.90;;;;;;5116804;28;19954;-41
2023/10/04 10:43:14;;;;;;;;;;;16.50;99.90;;;;;;5116731;28;19923;-41
2023/10/04 10:45:39;;;;;;;;;;;16.50;99.90;;;;;;5116802;28;19924;-41
2023/10/04 10:48:08;;;;;;;;;;;16.50;99.90;;;;;;5116588;28;20443;-41
2023/10/04 10:50:34;;;;;;;;;;;16.50;99.90;;;;;;5116473;28;19924;-41
2023/10/04 10:53:05;;;;;;;;;;;16.50;99.90;;;;;;5116608;28;19930;-41
2023/10/04 10:55:32;;;;;;;;;;;16.50;99.90;;;;;;5116582;28;19924;-41
2023/10/04 10:57:58;;;;;;;;;;;16.50;99.90;;;;;;5116312;28;19968;-41
2023/10/04 11:00:25;;;;;;;;;;;16.40;99.90;;;;;;5116495;28;19927;-41
2023/10/04 11:02:53;;;;;;;;;;;16.40;99.90;;;;;;5115626;28;20301;-42
2023/10/04 11:05:20;;;;;;;;;;;16.40;99.90;;;;;;5116030;28;20431;-41
2023/10/04 11:07:47;;;;;;;;;;;16.40;99.90;;;;;;5116412;28;19924;-40
2023/10/04 11:10:16;;;;;;;;;;;16.40;99.90;;;;;;5116631;28;19931;-41
2023/10/04 11:12:46;;;;;;;;;;;16.30;99.90;;;;;;5116369;28;19971;-41
2023/10/04 11:15:12;;;;;;;;;;;16.30;99.90;;;;;;5115871;28;20018;-41
2023/10/04 11:17:38;;;;;;;;;;;16.30;99.90;;;;;;5115834;28;19986;-41
2023/10/04 11:20:09;;;;;;;;;;;16.30;99.90;;;;;;5116541;28;19924;-40
2023/10/04 11:22:38;;;;;;;;;;;16.30;99.90;;;;;;5116077;27;19931;-41
2023/10/04 11:25:05;;;;;;;;;;;16.30;99.90;;;;;;5115817;28;19976;-40
2023/10/04 11:27:31;;;;;;;;;;;16.30;99.90;;;;;;5114649;28;19947;-41
2023/10/04 11:29:57;;;;;;;;;;;16.30;99.90;;;;;;5115807;28;20374;-41
2023/10/04 11:32:23;;;;;;;;;;;16.30;99.90;;;;;;5115679;28;20011;-42
2023/10/04 11:34:49;;;;;;;;;;;16.30;99.90;;;;;;5115742;28;20451;-41
2023/10/04 11:37:15;;;;;;;;;;;16.30;99.90;;;;;;5116025;28;19935;-41
2023/10/04 11:39:43;;;;;;;;;;;16.30;99.90;;;;;;5115625;28;19924;-41
2023/10/04 11:42:20;;;;;;;;;;;16.30;99.90;;;;;;5115498;27;19934;-41
2023/10/04 11:44:45;;;;;;;;;;;16.30;99.90;;;;;;5115445;28;19924;-41
2023/10/04 11:47:11;;;;;;;;;;;16.40;99.90;;;;;;5115518;28;19923;-40
2023/10/04 11:49:38;;;;;;;;;;;16.40;99.90;;;;;;5115825;28;19923;-41
2023/10/04 11:52:05;;;;;;;;;;;16.40;99.90;;;;;;5115505;27;19924;-41
2023/10/04 11:54:41;;;;;;;;;;;16.40;99.90;;;;;;5115449;28;19924;-40
2023/10/04 11:57:08;;;;;;;;;;;16.40;99.90;;;;;;5115171;28;19969;-40
2023/10/04 11:59:34;;;;;;;;;;;16.50;99.90;;;;;;5115092;28;20276;-41
2023/10/04 12:02:00;;;;;;;;;;;16.50;99.90;;;;;;5115566;28;19930;-41
2023/10/04 12:04:27;;;;;;;;;;;16.50;99.90;;;;;;5115153;28;19923;-41
2023/10/04 12:06:58;;;;;;;;;;;16.50;99.90;;;;;;5115163;28;19931;-41
2023/10/04 12:09:24;;;;;;;;;;;16.50;99.90;;;;;;5114920;28;19963;-41
2023/10/04 12:11:49;;;;;;;;;;;16.50;99.90;;;;;;5115016;28;19975;-41
2023/10/04 12:14:15;;;;;;;;;;;16.50;99.90;;;;;;5114780;28;19924;-41
2023/10/04 12:16:43;;;;;;;;;;;16.50;99.90;;;;;;5114910;28;19924;-41
2023/10/04 12:19:09;;;;;;;;;;;16.50;99.90;;;;;;5114855;28;20056;-41
2023/10/04 12:21:35;;;;;;;;;;;16.50;99.90;;;;;;5115069;28;20376;-41
2023/10/04 12:24:04;;;;;;;;;;;16.60;99.90;;;;;;5114806;28;19924;-41
2023/10/04 12:26:30;;;;;;;;;;;16.60;99.90;;;;;;5114625;28;19924;-41
2023/10/04 12:28:56;;;;;;;;;;;16.70;99.90;;;;;;5113838;28;19923;-41
2023/10/04 12:31:22;;;;;;;;;;;16.60;99.90;;;;;;5114851;28;19930;-41
2023/10/04 12:33:48;;;;;;;;;;;16.70;99.90;;;;;;5114793;28;19927;-41
2023/10/04 12:36:15;;;;;;;;;;;16.70;99.90;;;;;;5113615;28;19928;-41
2023/10/04 12:38:41;;;;;;;;;;;16.80;99.90;;;;;;5114617;28;19924;-41
2023/10/04 12:41:06;;;;;;;;;;;16.80;99.90;;;;;;5114527;28;20031;-41
2023/10/04 12:43:32;;;;;;;;;;;16.80;99.90;;;;;;5114841;28;19963;-41
2023/10/04 12:45:58;;;;;;;;;;;16.90;99.90;;;;;;5114556;28;19924;-41
2023/10/04 12:48:23;;;;;;;;;;;16.90;99.90;;;;;;5114560;28;19976;-41
2023/10/04 12:50:49;;;;;;;;;;;16.90;99.90;;;;;;5114443;28;19980;-41
2023/10/04 12:53:15;;;;;;;;;;;16.90;99.90;;;;;;5114655;28;19924;-41
2023/10/04 12:55:41;;;;;;;;;;;16.90;99.90;;;;;;5114301;28;19970;-42
2023/10/04 12:58:07;;;;;;;;;;;17.00;99.90;;;;;;5114489;28;19931;-42
2023/10/04 13:00:33;;;;;;;;;;;17.00;99.90;;;;;;5114408;28;19924;-41
2023/10/04 13:03:00;;;;;;;;;;;17.00;99.90;;;;;;5114463;28;20027;-41
2023/10/04 13:05:26;;;;;;;;;;;17.00;99.90;;;;;;5114507;28;19923;-41
2023/10/04 13:07:53;;;;;;;;;;;17.00;99.90;;;;;;5114283;28;19931;-41
2023/10/04 13:10:18;;;;;;;;;;;17.00;99.90;;;;;;5114372;28;20282;-42
2023/10/04 13:12:44;;;;;;;;;;;17.00;99.90;;;;;;5113154;28;19924;-41
2023/10/04 13:15:10;;;;;;;;;;;17.00;99.90;;;;;;5114375;28;20019;-42
2023/10/04 13:17:39;;;;;;;;;;;16.90;99.90;;;;;;5114257;28;19979;-41
2023/10/04 13:20:09;;;;;;;;;;;17.00;99.90;;;;;;5114329;28;19927;-41
2023/10/04 13:22:35;;;;;;;;;;;17.00;99.90;;;;;;5113150;28;19924;-41
2023/10/04 13:25:03;;;;;;;;;;;16.90;99.90;;;;;;5114213;28;19947;-41
2023/10/04 13:27:30;;;;;;;;;;;16.90;99.90;;;;;;5113490;28;20306;-42
2023/10/04 13:29:56;;;;;;;;;;;16.90;99.90;;;;;;5114152;28;20018;-41
2023/10/04 13:32:21;;;;;;;;;;;16.90;99.90;;;;;;5116536;28;19982;-42
2023/10/04 13:34:47;;;;;;;;;;;16.90;99.90;;;;;;5118035;28;19924;-41
2023/10/04 13:37:12;;;;;;;;;;;16.90;99.90;;;;;;5117823;28;19924;-41
2023/10/04 13:39:38;;;;;;;;;;;16.90;99.90;;;;;;5117942;28;19951;-42
2023/10/04 13:42:04;;;;;;;;;;;16.90;99.90;;;;;;5117194;28;20018;-41
2023/10/04 13:44:32;;;;;;;;;;;16.90;99.90;;;;;;5117989;28;20363;-41
2023/10/04 13:46:58;;;;;;;;;;;16.90;99.90;;;;;;5117840;28;20024;-41
2023/10/04 13:49:26;;;;;;;;;;;16.90;99.90;;;;;;5117712;28;19981;-41
2023/10/04 13:51:53;;;;;;;;;;;16.90;99.90;;;;;;5117637;28;20390;-41
2023/10/04 13:54:19;;;;;;;;;;;16.90;99.90;;;;;;5117751;28;19928;-41
2023/10/04 13:56:46;;;;;;;;;;;16.80;99.90;;;;;;5117658;28;19924;-41
2023/10/04 13:59:12;;;;;;;;;;;16.90;99.90;;;;;;5117064;28;19924;-41
2023/10/04 14:01:41;;;;;;;;;;;16.80;99.90;;;;;;5117726;28;19923;-41
2023/10/04 14:04:08;;;;;;;;;;;16.90;99.90;;;;;;5117670;28;19930;-41
2023/10/04 14:06:35;;;;;;;;;;;16.80;99.90;;;;;;5117309;28;19924;-42
2023/10/04 14:09:10;;;;;;;;;;;16.80;99.90;;;;;;5116316;28;19968;-41
2023/10/04 14:11:36;;;;;;;;;;;16.80;99.90;;;;;;5117568;28;20321;-41
2023/10/04 14:14:07;;;;;;;;;;;16.80;99.90;;;;;;5117435;28;19968;-41
2023/10/04 14:16:33;;;;;;;;;;;16.80;99.90;;;;;;5116309;28;19923;-41
2023/10/04 14:18:58;;;;;;;;;;;16.80;99.90;;;;;;5117129;28;19981;-41